UAE1D ZSPD-VTBD
Flight info
| Callsign | UAE1D |
|---|---|
| Flight time | N/A |
| Altitude | 32100 |
| Route | NXD91D NXD W131 AKDIM A470 DUBGO W134 ELNEX A599 PLT W19 NOMAR W18 NLG W23 ZUH R200 BIGRO G221 SAMAS A202 ASSAD/K0915F340 A202 VILAO/N0494F340 A202 RAMEI Y20 UBLOD ENDUU3A |
| Aircraft | B77L/H-SDE1E2E3FGHIJ2J3J4J5M1RWXY/LB1D1 |
Departure
| Time | 2026-04-30 10:56 |
|---|---|
| Airport | Shanghai Pudong International Airport (ZSPD) |
Arrival
| Time | N/A |
|---|---|
| Airport | Don Mueang International Airport (VTBD) |
| Time | Latitude | Longitude | Altitude | Speed | Heading |
|---|---|---|---|---|---|
| 2026-04-30 10:29 | 31.12969 | 121.78845 | 27 ft | 0 kts | 252° |
| 2026-04-30 10:46 | 31.12969 | 121.78848 | 27 ft | 2 kts | 252° |
| 2026-04-30 10:47 | 31.12978 | 121.78877 | 27 ft | 4 kts | 247° |
| 2026-04-30 10:47 | 31.12990 | 121.78905 | 27 ft | 4 kts | 240° |
| 2026-04-30 10:47 | 31.13005 | 121.78931 | 27 ft | 4 kts | 223° |
| 2026-04-30 10:47 | 31.13025 | 121.78945 | 27 ft | 4 kts | 172° |
| 2026-04-30 10:48 | 31.13030 | 121.78944 | 27 ft | 0 kts | 162° |
| 2026-04-30 10:50 | 31.13018 | 121.78949 | 27 ft | 7 kts | 162° |
| 2026-04-30 10:51 | 31.12972 | 121.78967 | 27 ft | 8 kts | 162° |
| 2026-04-30 10:51 | 31.12915 | 121.78989 | 27 ft | 9 kts | 162° |
| 2026-04-30 10:51 | 31.12854 | 121.79012 | 27 ft | 12 kts | 162° |
| 2026-04-30 10:51 | 31.12761 | 121.79047 | 27 ft | 14 kts | 162° |
| 2026-04-30 10:52 | 31.12666 | 121.79083 | 27 ft | 14 kts | 162° |
| 2026-04-30 10:52 | 31.12571 | 121.79118 | 27 ft | 14 kts | 162° |
| 2026-04-30 10:52 | 31.12514 | 121.79182 | 27 ft | 10 kts | 92° |
| 2026-04-30 10:52 | 31.12531 | 121.79245 | 27 ft | 8 kts | 72° |
| 2026-04-30 10:53 | 31.12549 | 121.79309 | 26 ft | 8 kts | 72° |
| 2026-04-30 10:53 | 31.12568 | 121.79379 | 26 ft | 10 kts | 72° |
| 2026-04-30 10:53 | 31.12594 | 121.79472 | 26 ft | 13 kts | 72° |
| 2026-04-30 10:53 | 31.12623 | 121.79574 | 27 ft | 13 kts | 72° |
| 2026-04-30 10:54 | 31.12651 | 121.79673 | 27 ft | 12 kts | 72° |
| 2026-04-30 10:54 | 31.12672 | 121.79750 | 28 ft | 1 kts | 72° |
| 2026-04-30 10:54 | 31.12682 | 121.79791 | 28 ft | 8 kts | 72° |
| 2026-04-30 10:54 | 31.12706 | 121.79852 | 28 ft | 9 kts | 50° |
| 2026-04-30 10:55 | 31.12760 | 121.79869 | 27 ft | 3 kts | 346° |
| 2026-04-30 10:55 | 31.12868 | 121.79828 | 27 ft | 45 kts | 342° |
| 2026-04-30 10:55 | 31.13397 | 121.79627 | 26 ft | 112 kts | 342° |
| 2026-04-30 10:55 | 31.14318 | 121.79279 | 26 ft | 164 kts | 342° |
| 2026-04-30 10:56 | 31.15487 | 121.78832 | 265 ft | 181 kts | 341° |
| 2026-04-30 10:56 | 31.16700 | 121.78359 | 753 ft | 186 kts | 340° |
| 2026-04-30 10:56 | 31.17924 | 121.77853 | 1321 ft | 187 kts | 339° |
| 2026-04-30 10:56 | 31.19163 | 121.77343 | 1831 ft | 195 kts | 340° |
| 2026-04-30 10:57 | 31.20512 | 121.76799 | 2067 ft | 216 kts | 340° |
| 2026-04-30 10:57 | 31.22012 | 121.76207 | 2290 ft | 240 kts | 341° |
| 2026-04-30 10:57 | 31.23635 | 121.75569 | 2798 ft | 250 kts | 341° |
| 2026-04-30 10:57 | 31.25291 | 121.74915 | 3422 ft | 256 kts | 341° |
| 2026-04-30 10:58 | 31.26991 | 121.74244 | 4126 ft | 259 kts | 341° |
| 2026-04-30 10:58 | 31.28715 | 121.73562 | 4823 ft | 263 kts | 341° |
| 2026-04-30 10:58 | 31.30470 | 121.72847 | 5371 ft | 270 kts | 335° |
| 2026-04-30 10:58 | 31.31958 | 121.71492 | 5831 ft | 277 kts | 302° |
| 2026-04-30 10:59 | 31.32537 | 121.69368 | 6505 ft | 278 kts | 268° |
| 2026-04-30 10:59 | 31.32097 | 121.67176 | 7184 ft | 278 kts | 246° |
| 2026-04-30 10:59 | 31.31348 | 121.65061 | 7725 ft | 285 kts | 248° |
| 2026-04-30 10:59 | 31.30628 | 121.62913 | 8406 ft | 288 kts | 248° |
| 2026-04-30 11:00 | 31.29898 | 121.60726 | 9114 ft | 290 kts | 248° |
| 2026-04-30 11:00 | 31.29158 | 121.58516 | 9767 ft | 293 kts | 248° |
| 2026-04-30 11:00 | 31.28407 | 121.56281 | 10341 ft | 300 kts | 248° |
| 2026-04-30 11:00 | 31.27594 | 121.53949 | 10521 ft | 318 kts | 244° |
| 2026-04-30 11:01 | 31.26464 | 121.51614 | 10695 ft | 339 kts | 237° |
| 2026-04-30 11:01 | 31.25143 | 121.49257 | 10858 ft | 360 kts | 236° |
| 2026-04-30 11:01 | 31.23710 | 121.46783 | 11110 ft | 377 kts | 236° |
| 2026-04-30 11:01 | 31.22207 | 121.44188 | 11576 ft | 388 kts | 236° |
| 2026-04-30 11:02 | 31.20686 | 121.41533 | 12212 ft | 393 kts | 236° |
| 2026-04-30 11:02 | 31.19188 | 121.38892 | 12932 ft | 396 kts | 236° |
| 2026-04-30 11:02 | 31.17667 | 121.36189 | 13600 ft | 400 kts | 237° |
| 2026-04-30 11:02 | 31.16132 | 121.33448 | 14204 ft | 405 kts | 237° |
| 2026-04-30 11:03 | 31.14587 | 121.30680 | 14780 ft | 409 kts | 237° |
| 2026-04-30 11:03 | 31.13024 | 121.27876 | 15342 ft | 413 kts | 237° |
| 2026-04-30 11:03 | 31.11444 | 121.25040 | 15884 ft | 417 kts | 237° |
| 2026-04-30 11:04 | 31.08265 | 121.19341 | 16880 ft | 425 kts | 237° |
| 2026-04-30 11:04 | 31.06643 | 121.16437 | 17344 ft | 428 kts | 237° |
| 2026-04-30 11:04 | 31.05008 | 121.13513 | 17787 ft | 432 kts | 237° |
| 2026-04-30 11:04 | 31.03360 | 121.10567 | 18208 ft | 435 kts | 237° |
| 2026-04-30 11:05 | 31.01699 | 121.07600 | 18610 ft | 438 kts | 237° |
| 2026-04-30 11:05 | 31.00019 | 121.04602 | 18993 ft | 441 kts | 237° |
| 2026-04-30 11:05 | 30.98338 | 121.01603 | 19356 ft | 444 kts | 237° |
| 2026-04-30 11:05 | 30.96636 | 120.98570 | 19704 ft | 447 kts | 237° |
| 2026-04-30 11:06 | 30.94927 | 120.95527 | 20033 ft | 450 kts | 237° |
| 2026-04-30 11:06 | 30.93231 | 120.92510 | 20344 ft | 452 kts | 237° |
| 2026-04-30 11:06 | 30.91500 | 120.89432 | 20649 ft | 455 kts | 237° |
| 2026-04-30 11:06 | 30.89760 | 120.86341 | 20946 ft | 457 kts | 237° |
| 2026-04-30 11:07 | 30.88012 | 120.83238 | 21235 ft | 460 kts | 237° |
| 2026-04-30 11:07 | 30.86252 | 120.80118 | 21517 ft | 462 kts | 237° |
| 2026-04-30 11:07 | 30.84483 | 120.76981 | 21790 ft | 464 kts | 237° |
| 2026-04-30 11:07 | 30.82694 | 120.73814 | 22055 ft | 466 kts | 237° |
| 2026-04-30 11:08 | 30.80906 | 120.70650 | 22312 ft | 469 kts | 237° |
| 2026-04-30 11:08 | 30.79112 | 120.67478 | 22560 ft | 471 kts | 237° |
| 2026-04-30 11:08 | 30.77331 | 120.64332 | 22799 ft | 473 kts | 236° |
| 2026-04-30 11:08 | 30.75520 | 120.61134 | 23034 ft | 475 kts | 236° |
| 2026-04-30 11:09 | 30.73695 | 120.57916 | 23263 ft | 477 kts | 236° |
| 2026-04-30 11:09 | 30.71869 | 120.54698 | 23484 ft | 479 kts | 236° |
| 2026-04-30 11:09 | 30.70030 | 120.51460 | 23700 ft | 481 kts | 236° |
| 2026-04-30 11:09 | 30.68186 | 120.48215 | 23909 ft | 482 kts | 236° |
| 2026-04-30 11:10 | 30.66329 | 120.44951 | 24112 ft | 484 kts | 236° |
| 2026-04-30 11:10 | 30.64468 | 120.41682 | 24309 ft | 486 kts | 236° |
| 2026-04-30 11:10 | 30.62602 | 120.38406 | 24499 ft | 488 kts | 236° |
| 2026-04-30 11:10 | 30.60725 | 120.35115 | 24684 ft | 489 kts | 236° |
| 2026-04-30 11:11 | 30.58845 | 120.31821 | 24863 ft | 491 kts | 236° |
| 2026-04-30 11:11 | 30.56952 | 120.28505 | 25037 ft | 492 kts | 236° |
| 2026-04-30 11:11 | 30.55050 | 120.25178 | 25207 ft | 494 kts | 236° |
| 2026-04-30 11:11 | 30.53148 | 120.21853 | 25370 ft | 495 kts | 236° |
| 2026-04-30 11:12 | 30.51242 | 120.18522 | 25529 ft | 497 kts | 236° |
| 2026-04-30 11:12 | 30.49326 | 120.15177 | 25683 ft | 498 kts | 236° |
| 2026-04-30 11:12 | 30.47398 | 120.11815 | 25832 ft | 500 kts | 236° |
| 2026-04-30 11:12 | 30.45376 | 120.08535 | 25964 ft | 501 kts | 230° |
| 2026-04-30 11:13 | 30.42978 | 120.05601 | 26092 ft | 502 kts | 222° |
| 2026-04-30 11:13 | 30.40282 | 120.03022 | 26237 ft | 503 kts | 216° |
| 2026-04-30 11:13 | 30.37325 | 120.00840 | 26367 ft | 504 kts | 209° |
| 2026-04-30 11:13 | 30.34258 | 119.98863 | 26486 ft | 505 kts | 209° |
| 2026-04-30 11:14 | 30.31179 | 119.96883 | 26595 ft | 507 kts | 209° |
| 2026-04-30 11:14 | 30.28099 | 119.94884 | 26712 ft | 508 kts | 210° |
| 2026-04-30 11:14 | 30.25016 | 119.92860 | 26834 ft | 509 kts | 210° |
| 2026-04-30 11:14 | 30.21975 | 119.90848 | 26952 ft | 510 kts | 210° |
| 2026-04-30 11:15 | 30.18893 | 119.88802 | 27062 ft | 511 kts | 210° |
| 2026-04-30 11:15 | 30.15800 | 119.86749 | 27169 ft | 512 kts | 210° |
| 2026-04-30 11:15 | 30.12704 | 119.84696 | 27272 ft | 513 kts | 210° |
| 2026-04-30 11:15 | 30.09605 | 119.82644 | 27374 ft | 514 kts | 210° |
| 2026-04-30 11:16 | 30.06497 | 119.80590 | 27474 ft | 515 kts | 210° |
| 2026-04-30 11:16 | 30.03384 | 119.78529 | 27570 ft | 516 kts | 210° |
| 2026-04-30 11:16 | 30.00274 | 119.76444 | 27663 ft | 517 kts | 210° |
| 2026-04-30 11:16 | 29.97192 | 119.74364 | 27749 ft | 517 kts | 210° |
| 2026-04-30 11:17 | 29.94086 | 119.72268 | 27831 ft | 518 kts | 210° |
| 2026-04-30 11:17 | 29.90969 | 119.70169 | 27910 ft | 519 kts | 210° |
| 2026-04-30 11:17 | 29.87834 | 119.68065 | 27986 ft | 520 kts | 210° |
| 2026-04-30 11:18 | 29.81721 | 119.63606 | 28113 ft | 521 kts | 214° |
| 2026-04-30 11:18 | 29.75741 | 119.58846 | 28228 ft | 522 kts | 214° |
| 2026-04-30 11:18 | 29.72779 | 119.56505 | 28294 ft | 523 kts | 214° |
| 2026-04-30 11:19 | 29.66764 | 119.51789 | 28411 ft | 524 kts | 214° |
| 2026-04-30 11:19 | 29.61133 | 119.46472 | 28499 ft | 525 kts | 225° |
| 2026-04-30 11:20 | 29.56298 | 119.40172 | 28596 ft | 525 kts | 229° |
| 2026-04-30 11:20 | 29.51417 | 119.33898 | 28674 ft | 526 kts | 227° |
| 2026-04-30 11:21 | 29.46481 | 119.27678 | 28752 ft | 527 kts | 227° |
| 2026-04-30 11:21 | 29.41568 | 119.21471 | 28826 ft | 528 kts | 228° |
| 2026-04-30 11:22 | 29.36627 | 119.15220 | 28891 ft | 528 kts | 227° |
| 2026-04-30 11:22 | 29.31675 | 119.08956 | 28948 ft | 529 kts | 228° |
| 2026-04-30 11:23 | 29.26732 | 119.02697 | 29002 ft | 530 kts | 228° |
| 2026-04-30 11:24 | 29.19318 | 118.93356 | 29074 ft | 530 kts | 227° |
| 2026-04-30 11:24 | 29.14333 | 118.87107 | 29117 ft | 531 kts | 227° |
| 2026-04-30 11:25 | 29.06855 | 118.77743 | 29176 ft | 531 kts | 227° |
| 2026-04-30 11:26 | 28.96880 | 118.65278 | 29242 ft | 532 kts | 227° |
| 2026-04-30 11:26 | 28.91899 | 118.59068 | 29274 ft | 532 kts | 227° |
| 2026-04-30 11:27 | 28.86891 | 118.52833 | 29318 ft | 532 kts | 227° |
| 2026-04-30 11:27 | 28.84396 | 118.49732 | 29572 ft | 527 kts | 227° |